sensor_id;sensor_type;location;lat;lon;timestamp;P1;durP1;ratioP1;P2;durP2;ratioP2
37355;SDS011;48747;50.250;18.848;2024-02-26T00:00:33;32.08;;;16.02;;
37355;SDS011;48747;50.250;18.848;2024-02-26T00:02:36;34.58;;;16.57;;
37355;SDS011;48747;50.250;18.848;2024-02-26T00:04:41;36.15;;;15.88;;
37355;SDS011;48747;50.250;18.848;2024-02-26T00:06:44;33.38;;;16.48;;
37355;SDS011;48747;50.250;18.848;2024-02-26T00:08:47;35.23;;;16.77;;
37355;SDS011;48747;50.250;18.848;2024-02-26T00:10:50;35.00;;;17.15;;
37355;SDS011;48747;50.250;18.848;2024-02-26T00:12:53;33.67;;;17.50;;
37355;SDS011;48747;50.250;18.848;2024-02-26T00:14:56;35.98;;;17.12;;
37355;SDS011;48747;50.250;18.848;2024-02-26T00:16:59;39.50;;;18.55;;
37355;SDS011;48747;50.250;18.848;2024-02-26T00:19:02;42.33;;;17.12;;
37355;SDS011;48747;50.250;18.848;2024-02-26T00:21:05;37.42;;;17.67;;
37355;SDS011;48747;50.250;18.848;2024-02-26T00:23:08;36.65;;;17.20;;
37355;SDS011;48747;50.250;18.848;2024-02-26T00:27:44;35.73;;;16.50;;
37355;SDS011;48747;50.250;18.848;2024-02-26T00:29:47;34.67;;;16.50;;
37355;SDS011;48747;50.250;18.848;2024-02-26T00:31:50;34.50;;;17.10;;
37355;SDS011;48747;50.250;18.848;2024-02-26T00:33:53;38.25;;;18.32;;
37355;SDS011;48747;50.250;18.848;2024-02-26T00:35:56;38.85;;;17.57;;
37355;SDS011;48747;50.250;18.848;2024-02-26T00:37:59;33.95;;;17.07;;
37355;SDS011;48747;50.250;18.848;2024-02-26T00:40:04;35.92;;;17.98;;
37355;SDS011;48747;50.250;18.848;2024-02-26T00:42:08;37.30;;;17.80;;
37355;SDS011;48747;50.250;18.848;2024-02-26T00:44:11;33.80;;;16.90;;
37355;SDS011;48747;50.250;18.848;2024-02-26T00:46:14;34.53;;;17.87;;
37355;SDS011;48747;50.250;18.848;2024-02-26T00:48:17;41.25;;;18.92;;
37355;SDS011;48747;50.250;18.848;2024-02-26T00:50:20;35.13;;;19.00;;
37355;SDS011;48747;50.250;18.848;2024-02-26T00:52:23;39.35;;;18.70;;
37355;SDS011;48747;50.250;18.848;2024-02-26T00:54:26;38.15;;;18.92;;
37355;SDS011;48747;50.250;18.848;2024-02-26T00:56:29;39.40;;;19.25;;
37355;SDS011;48747;50.250;18.848;2024-02-26T00:58:32;40.17;;;18.73;;
37355;SDS011;48747;50.250;18.848;2024-02-26T01:00:35;40.25;;;19.57;;
37355;SDS011;48747;50.250;18.848;2024-02-26T01:02:38;38.78;;;18.98;;
37355;SDS011;48747;50.250;18.848;2024-02-26T01:04:42;42.85;;;19.30;;
37355;SDS011;48747;50.250;18.848;2024-02-26T01:06:46;37.67;;;18.02;;
37355;SDS011;48747;50.250;18.848;2024-02-26T01:08:49;35.40;;;18.15;;
37355;SDS011;48747;50.250;18.848;2024-02-26T01:10:52;39.35;;;18.67;;
37355;SDS011;48747;50.250;18.848;2024-02-26T01:12:55;35.33;;;18.87;;
37355;SDS011;48747;50.250;18.848;2024-02-26T01:14:58;37.03;;;18.75;;
37355;SDS011;48747;50.250;18.848;2024-02-26T01:17:01;37.33;;;18.70;;
37355;SDS011;48747;50.250;18.848;2024-02-26T01:19:04;40.17;;;19.62;;
37355;SDS011;48747;50.250;18.848;2024-02-26T01:21:07;39.00;;;20.35;;
37355;SDS011;48747;50.250;18.848;2024-02-26T01:23:10;39.27;;;19.32;;
37355;SDS011;48747;50.250;18.848;2024-02-26T01:25:14;46.13;;;20.62;;
37355;SDS011;48747;50.250;18.848;2024-02-26T01:27:17;36.00;;;18.98;;
37355;SDS011;48747;50.250;18.848;2024-02-26T01:29:20;40.55;;;20.12;;
37355;SDS011;48747;50.250;18.848;2024-02-26T01:31:23;41.45;;;19.62;;
37355;SDS011;48747;50.250;18.848;2024-02-26T01:33:26;39.33;;;19.23;;
37355;SDS011;48747;50.250;18.848;2024-02-26T01:35:29;40.70;;;19.15;;
37355;SDS011;48747;50.250;18.848;2024-02-26T01:37:32;38.75;;;19.37;;
37355;SDS011;48747;50.250;18.848;2024-02-26T01:39:35;42.65;;;20.45;;
37355;SDS011;48747;50.250;18.848;2024-02-26T01:41:38;40.75;;;20.82;;
37355;SDS011;48747;50.250;18.848;2024-02-26T01:43:42;37.90;;;18.48;;
37355;SDS011;48747;50.250;18.848;2024-02-26T01:45:45;41.10;;;19.15;;
37355;SDS011;48747;50.250;18.848;2024-02-26T01:47:49;41.20;;;19.42;;
37355;SDS011;48747;50.250;18.848;2024-02-26T01:49:53;36.83;;;19.05;;
37355;SDS011;48747;50.250;18.848;2024-02-26T01:51:57;35.98;;;19.32;;
37355;SDS011;48747;50.250;18.848;2024-02-26T01:54:01;41.05;;;19.35;;
37355;SDS011;48747;50.250;18.848;2024-02-26T01:56:05;43.08;;;19.67;;
37355;SDS011;48747;50.250;18.848;2024-02-26T01:58:09;39.35;;;19.85;;
37355;SDS011;48747;50.250;18.848;2024-02-26T02:00:13;39.38;;;19.15;;
37355;SDS011;48747;50.250;18.848;2024-02-26T02:02:18;41.42;;;19.85;;
37355;SDS011;48747;50.250;18.848;2024-02-26T02:04:22;35.85;;;18.12;;
37355;SDS011;48747;50.250;18.848;2024-02-26T02:06:26;37.53;;;18.75;;
37355;SDS011;48747;50.250;18.848;2024-02-26T02:08:29;35.00;;;17.85;;
37355;SDS011;48747;50.250;18.848;2024-02-26T02:10:32;34.63;;;18.67;;
37355;SDS011;48747;50.250;18.848;2024-02-26T02:12:36;39.95;;;18.90;;
37355;SDS011;48747;50.250;18.848;2024-02-26T02:14:41;35.38;;;17.20;;
37355;SDS011;48747;50.250;18.848;2024-02-26T02:16:44;37.50;;;18.30;;
37355;SDS011;48747;50.250;18.848;2024-02-26T02:18:47;37.53;;;18.70;;
37355;SDS011;48747;50.250;18.848;2024-02-26T02:20:50;41.28;;;18.62;;
37355;SDS011;48747;50.250;18.848;2024-02-26T02:22:53;38.53;;;18.17;;
37355;SDS011;48747;50.250;18.848;2024-02-26T02:24:56;33.53;;;16.67;;
37355;SDS011;48747;50.250;18.848;2024-02-26T02:27:00;40.33;;;18.57;;
37355;SDS011;48747;50.250;18.848;2024-02-26T02:29:03;32.00;;;17.23;;
37355;SDS011;48747;50.250;18.848;2024-02-26T02:31:07;33.83;;;17.77;;
37355;SDS011;48747;50.250;18.848;2024-02-26T02:33:11;33.90;;;17.00;;
37355;SDS011;48747;50.250;18.848;2024-02-26T02:35:15;35.17;;;17.45;;
37355;SDS011;48747;50.250;18.848;2024-02-26T02:37:18;40.40;;;17.85;;
37355;SDS011;48747;50.250;18.848;2024-02-26T02:39:22;31.23;;;16.10;;
37355;SDS011;48747;50.250;18.848;2024-02-26T02:41:25;31.70;;;16.97;;
37355;SDS011;48747;50.250;18.848;2024-02-26T02:43:29;33.38;;;16.73;;
37355;SDS011;48747;50.250;18.848;2024-02-26T02:45:32;32.13;;;17.07;;
37355;SDS011;48747;50.250;18.848;2024-02-26T02:47:36;33.73;;;16.48;;
37355;SDS011;48747;50.250;18.848;2024-02-26T02:49:39;30.70;;;17.25;;
37355;SDS011;48747;50.250;18.848;2024-02-26T02:51:42;33.70;;;16.77;;
37355;SDS011;48747;50.250;18.848;2024-02-26T02:53:45;33.45;;;16.77;;
37355;SDS011;48747;50.250;18.848;2024-02-26T02:55:48;34.80;;;17.55;;
37355;SDS011;48747;50.250;18.848;2024-02-26T02:57:51;32.40;;;17.32;;
37355;SDS011;48747;50.250;18.848;2024-02-26T02:59:54;31.27;;;16.17;;
37355;SDS011;48747;50.250;18.848;2024-02-26T03:01:57;32.25;;;17.23;;
37355;SDS011;48747;50.250;18.848;2024-02-26T03:04:00;38.95;;;19.02;;
37355;SDS011;48747;50.250;18.848;2024-02-26T03:06:04;35.83;;;18.80;;
37355;SDS011;48747;50.250;18.848;2024-02-26T03:08:07;33.58;;;17.92;;
37355;SDS011;48747;50.250;18.848;2024-02-26T03:10:10;41.63;;;18.85;;
37355;SDS011;48747;50.250;18.848;2024-02-26T03:12:13;40.40;;;17.57;;
37355;SDS011;48747;50.250;18.848;2024-02-26T03:14:16;36.50;;;19.73;;
37355;SDS011;48747;50.250;18.848;2024-02-26T03:16:19;39.42;;;19.07;;
37355;SDS011;48747;50.250;18.848;2024-02-26T03:18:22;41.18;;;19.05;;
37355;SDS011;48747;50.250;18.848;2024-02-26T03:20:25;37.15;;;18.77;;
37355;SDS011;48747;50.250;18.848;2024-02-26T03:22:28;41.33;;;19.60;;
37355;SDS011;48747;50.250;18.848;2024-02-26T03:24:31;37.93;;;19.87;;
37355;SDS011;48747;50.250;18.848;2024-02-26T03:26:34;38.88;;;18.70;;
37355;SDS011;48747;50.250;18.848;2024-02-26T03:28:38;41.28;;;18.32;;
37355;SDS011;48747;50.250;18.848;2024-02-26T03:30:41;37.85;;;17.90;;
37355;SDS011;48747;50.250;18.848;2024-02-26T03:32:44;38.67;;;17.40;;
37355;SDS011;48747;50.250;18.848;2024-02-26T03:34:49;33.02;;;17.40;;
37355;SDS011;48747;50.250;18.848;2024-02-26T03:36:53;33.02;;;16.67;;
37355;SDS011;48747;50.250;18.848;2024-02-26T03:38:56;31.80;;;16.93;;
37355;SDS011;48747;50.250;18.848;2024-02-26T03:41:00;29.65;;;16.02;;
37355;SDS011;48747;50.250;18.848;2024-02-26T03:43:03;29.20;;;15.23;;
37355;SDS011;48747;50.250;18.848;2024-02-26T03:45:08;30.27;;;15.75;;
37355;SDS011;48747;50.250;18.848;2024-02-26T03:47:11;27.60;;;14.87;;
37355;SDS011;48747;50.250;18.848;2024-02-26T03:49:14;29.72;;;16.02;;
37355;SDS011;48747;50.250;18.848;2024-02-26T03:51:17;27.67;;;14.20;;
37355;SDS011;48747;50.250;18.848;2024-02-26T03:53:20;29.00;;;14.30;;
37355;SDS011;48747;50.250;18.848;2024-02-26T03:55:24;26.90;;;14.43;;
37355;SDS011;48747;50.250;18.848;2024-02-26T03:57:27;29.57;;;14.65;;
37355;SDS011;48747;50.250;18.848;2024-02-26T03:59:30;31.60;;;14.83;;
37355;SDS011;48747;50.250;18.848;2024-02-26T04:01:33;28.65;;;14.53;;
37355;SDS011;48747;50.250;18.848;2024-02-26T04:03:36;28.30;;;14.87;;
37355;SDS011;48747;50.250;18.848;2024-02-26T04:05:39;27.90;;;14.73;;
37355;SDS011;48747;50.250;18.848;2024-02-26T04:07:42;29.30;;;16.20;;
37355;SDS011;48747;50.250;18.848;2024-02-26T04:09:45;29.92;;;16.37;;
37355;SDS011;48747;50.250;18.848;2024-02-26T04:11:48;28.70;;;14.43;;
37355;SDS011;48747;50.250;18.848;2024-02-26T04:13:51;28.85;;;15.53;;
37355;SDS011;48747;50.250;18.848;2024-02-26T04:15:54;28.52;;;15.28;;
37355;SDS011;48747;50.250;18.848;2024-02-26T04:17:57;28.95;;;15.68;;
37355;SDS011;48747;50.250;18.848;2024-02-26T04:20:00;29.32;;;15.75;;
37355;SDS011;48747;50.250;18.848;2024-02-26T04:22:03;25.82;;;14.20;;
37355;SDS011;48747;50.250;18.848;2024-02-26T04:24:06;30.35;;;15.45;;
37355;SDS011;48747;50.250;18.848;2024-02-26T04:26:09;31.00;;;16.25;;
37355;SDS011;48747;50.250;18.848;2024-02-26T04:28:12;27.93;;;15.15;;
37355;SDS011;48747;50.250;18.848;2024-02-26T04:30:15;26.15;;;14.38;;
37355;SDS011;48747;50.250;18.848;2024-02-26T04:32:19;31.68;;;14.15;;
37355;SDS011;48747;50.250;18.848;2024-02-26T04:34:22;24.72;;;13.58;;
37355;SDS011;48747;50.250;18.848;2024-02-26T04:36:25;24.05;;;13.05;;
37355;SDS011;48747;50.250;18.848;2024-02-26T04:38:28;27.65;;;14.35;;
37355;SDS011;48747;50.250;18.848;2024-02-26T04:40:31;23.07;;;11.68;;
37355;SDS011;48747;50.250;18.848;2024-02-26T04:42:34;24.35;;;13.32;;
37355;SDS011;48747;50.250;18.848;2024-02-26T04:44:37;21.42;;;11.57;;
37355;SDS011;48747;50.250;18.848;2024-02-26T04:46:40;24.60;;;12.23;;
37355;SDS011;48747;50.250;18.848;2024-02-26T04:48:43;23.67;;;12.95;;
37355;SDS011;48747;50.250;18.848;2024-02-26T04:50:47;22.05;;;12.75;;
37355;SDS011;48747;50.250;18.848;2024-02-26T04:52:50;23.70;;;11.70;;
37355;SDS011;48747;50.250;18.848;2024-02-26T04:54:54;25.62;;;12.18;;
37355;SDS011;48747;50.250;18.848;2024-02-26T04:56:57;22.35;;;12.35;;
37355;SDS011;48747;50.250;18.848;2024-02-26T04:59:00;25.20;;;12.75;;
37355;SDS011;48747;50.250;18.848;2024-02-26T05:01:03;26.15;;;12.75;;
37355;SDS011;48747;50.250;18.848;2024-02-26T05:03:06;26.10;;;12.35;;
37355;SDS011;48747;50.250;18.848;2024-02-26T05:05:11;22.87;;;11.63;;
37355;SDS011;48747;50.250;18.848;2024-02-26T05:07:14;23.70;;;12.60;;
37355;SDS011;48747;50.250;18.848;2024-02-26T05:09:19;25.23;;;12.58;;
37355;SDS011;48747;50.250;18.848;2024-02-26T05:11:22;28.17;;;12.65;;
37355;SDS011;48747;50.250;18.848;2024-02-26T05:13:25;20.10;;;11.48;;
37355;SDS011;48747;50.250;18.848;2024-02-26T05:15:28;23.52;;;11.70;;
37355;SDS011;48747;50.250;18.848;2024-02-26T05:17:31;23.80;;;12.33;;
37355;SDS011;48747;50.250;18.848;2024-02-26T05:19:35;21.00;;;12.33;;
37355;SDS011;48747;50.250;18.848;2024-02-26T05:21:38;24.07;;;12.05;;
37355;SDS011;48747;50.250;18.848;2024-02-26T05:23:41;22.00;;;11.90;;
37355;SDS011;48747;50.250;18.848;2024-02-26T05:25:45;24.60;;;12.23;;
37355;SDS011;48747;50.250;18.848;2024-02-26T05:27:49;27.02;;;12.93;;
37355;SDS011;48747;50.250;18.848;2024-02-26T05:29:52;24.12;;;12.07;;
37355;SDS011;48747;50.250;18.848;2024-02-26T05:31:55;25.85;;;12.95;;
37355;SDS011;48747;50.250;18.848;2024-02-26T05:33:58;25.37;;;12.43;;
37355;SDS011;48747;50.250;18.848;2024-02-26T05:36:01;22.02;;;13.60;;
37355;SDS011;48747;50.250;18.848;2024-02-26T05:38:06;21.48;;;12.20;;
37355;SDS011;48747;50.250;18.848;2024-02-26T05:40:09;24.20;;;12.37;;
37355;SDS011;48747;50.250;18.848;2024-02-26T05:42:12;21.95;;;12.05;;
37355;SDS011;48747;50.250;18.848;2024-02-26T05:44:15;24.20;;;12.70;;
37355;SDS011;48747;50.250;18.848;2024-02-26T05:46:19;28.17;;;13.98;;
37355;SDS011;48747;50.250;18.848;2024-02-26T05:48:22;24.12;;;12.28;;
37355;SDS011;48747;50.250;18.848;2024-02-26T05:50:25;25.00;;;13.08;;
37355;SDS011;48747;50.250;18.848;2024-02-26T05:52:28;30.20;;;13.20;;
37355;SDS011;48747;50.250;18.848;2024-02-26T05:54:32;26.87;;;12.82;;
37355;SDS011;48747;50.250;18.848;2024-02-26T05:56:36;23.92;;;12.90;;
37355;SDS011;48747;50.250;18.848;2024-02-26T05:58:39;26.33;;;13.15;;
37355;SDS011;48747;50.250;18.848;2024-02-26T06:00:42;37.48;;;13.22;;
37355;SDS011;48747;50.250;18.848;2024-02-26T06:02:45;39.25;;;12.95;;
37355;SDS011;48747;50.250;18.848;2024-02-26T06:04:48;27.70;;;13.15;;
37355;SDS011;48747;50.250;18.848;2024-02-26T06:06:51;31.77;;;12.60;;
37355;SDS011;48747;50.250;18.848;2024-02-26T06:08:54;39.75;;;13.03;;
37355;SDS011;48747;50.250;18.848;2024-02-26T06:10:57;40.65;;;13.13;;
37355;SDS011;48747;50.250;18.848;2024-02-26T06:13:04;29.60;;;12.23;;
37355;SDS011;48747;50.250;18.848;2024-02-26T06:15:07;27.60;;;12.40;;
37355;SDS011;48747;50.250;18.848;2024-02-26T06:17:10;21.70;;;11.55;;
37355;SDS011;48747;50.250;18.848;2024-02-26T06:19:13;25.77;;;11.48;;
37355;SDS011;48747;50.250;18.848;2024-02-26T06:21:16;26.15;;;11.75;;
37355;SDS011;48747;50.250;18.848;2024-02-26T06:23:19;27.55;;;11.48;;
37355;SDS011;48747;50.250;18.848;2024-02-26T06:25:22;19.87;;;11.35;;
37355;SDS011;48747;50.250;18.848;2024-02-26T06:27:27;24.40;;;11.18;;
37355;SDS011;48747;50.250;18.848;2024-02-26T06:29:30;23.22;;;11.40;;
37355;SDS011;48747;50.250;18.848;2024-02-26T06:31:33;22.30;;;10.30;;
37355;SDS011;48747;50.250;18.848;2024-02-26T06:33:36;27.55;;;10.18;;
37355;SDS011;48747;50.250;18.848;2024-02-26T06:35:39;23.38;;;10.82;;
37355;SDS011;48747;50.250;18.848;2024-02-26T06:37:42;17.52;;;9.53;;
37355;SDS011;48747;50.250;18.848;2024-02-26T06:39:45;19.10;;;9.90;;
37355;SDS011;48747;50.250;18.848;2024-02-26T06:41:48;24.65;;;10.75;;
37355;SDS011;48747;50.250;18.848;2024-02-26T06:43:51;21.97;;;11.05;;
37355;SDS011;48747;50.250;18.848;2024-02-26T06:45:54;24.43;;;9.08;;
37355;SDS011;48747;50.250;18.848;2024-02-26T06:47:57;20.60;;;9.95;;
37355;SDS011;48747;50.250;18.848;2024-02-26T06:50:00;21.07;;;9.48;;
37355;SDS011;48747;50.250;18.848;2024-02-26T06:52:03;23.22;;;10.53;;
37355;SDS011;48747;50.250;18.848;2024-02-26T06:54:07;24.07;;;10.75;;
37355;SDS011;48747;50.250;18.848;2024-02-26T06:56:10;23.50;;;10.48;;
37355;SDS011;48747;50.250;18.848;2024-02-26T06:58:13;21.25;;;9.90;;
37355;SDS011;48747;50.250;18.848;2024-02-26T07:00:16;27.73;;;11.20;;
37355;SDS011;48747;50.250;18.848;2024-02-26T07:02:20;24.52;;;10.90;;
37355;SDS011;48747;50.250;18.848;2024-02-26T07:04:23;27.50;;;10.58;;
37355;SDS011;48747;50.250;18.848;2024-02-26T07:06:31;31.25;;;10.63;;
37355;SDS011;48747;50.250;18.848;2024-02-26T07:08:30;27.87;;;9.88;;
37355;SDS011;48747;50.250;18.848;2024-02-26T07:10:33;26.95;;;10.00;;
37355;SDS011;48747;50.250;18.848;2024-02-26T07:12:36;20.90;;;9.48;;
37355;SDS011;48747;50.250;18.848;2024-02-26T07:14:39;18.90;;;9.93;;
37355;SDS011;48747;50.250;18.848;2024-02-26T07:16:42;26.42;;;9.95;;
37355;SDS011;48747;50.250;18.848;2024-02-26T07:18:45;28.90;;;10.10;;
37355;SDS011;48747;50.250;18.848;2024-02-26T07:20:48;31.60;;;10.88;;
37355;SDS011;48747;50.250;18.848;2024-02-26T07:22:51;21.07;;;10.13;;
37355;SDS011;48747;50.250;18.848;2024-02-26T07:24:55;21.17;;;10.85;;
37355;SDS011;48747;50.250;18.848;2024-02-26T07:26:58;27.87;;;11.22;;
37355;SDS011;48747;50.250;18.848;2024-02-26T07:29:01;26.37;;;11.75;;
37355;SDS011;48747;50.250;18.848;2024-02-26T07:31:05;28.57;;;13.53;;
37355;SDS011;48747;50.250;18.848;2024-02-26T07:33:08;29.40;;;15.18;;
37355;SDS011;48747;50.250;18.848;2024-02-26T07:35:11;38.60;;;15.80;;
37355;SDS011;48747;50.250;18.848;2024-02-26T07:37:14;36.15;;;17.92;;
37355;SDS011;48747;50.250;18.848;2024-02-26T07:39:17;40.67;;;15.38;;
37355;SDS011;48747;50.250;18.848;2024-02-26T07:41:20;32.08;;;17.15;;
37355;SDS011;48747;50.250;18.848;2024-02-26T07:43:23;33.50;;;15.38;;
37355;SDS011;48747;50.250;18.848;2024-02-26T07:45:26;24.57;;;14.15;;
37355;SDS011;48747;50.250;18.848;2024-02-26T07:47:29;26.77;;;13.78;;
37355;SDS011;48747;50.250;18.848;2024-02-26T07:49:32;27.07;;;13.75;;
37355;SDS011;48747;50.250;18.848;2024-02-26T07:51:35;22.62;;;13.62;;
37355;SDS011;48747;50.250;18.848;2024-02-26T07:53:38;25.72;;;13.03;;
37355;SDS011;48747;50.250;18.848;2024-02-26T07:55:41;23.87;;;12.75;;
37355;SDS011;48747;50.250;18.848;2024-02-26T07:57:45;22.22;;;13.38;;
37355;SDS011;48747;50.250;18.848;2024-02-26T07:59:48;17.27;;;9.85;;
37355;SDS011;48747;50.250;18.848;2024-02-26T08:01:51;23.38;;;12.28;;
37355;SDS011;48747;50.250;18.848;2024-02-26T08:03:54;24.67;;;12.95;;
37355;SDS011;48747;50.250;18.848;2024-02-26T08:05:57;21.00;;;11.80;;
37355;SDS011;48747;50.250;18.848;2024-02-26T08:08:00;21.25;;;12.40;;
37355;SDS011;48747;50.250;18.848;2024-02-26T08:10:03;27.15;;;12.85;;
37355;SDS011;48747;50.250;18.848;2024-02-26T08:12:06;22.70;;;12.47;;
37355;SDS011;48747;50.250;18.848;2024-02-26T08:14:09;27.25;;;12.43;;
37355;SDS011;48747;50.250;18.848;2024-02-26T08:16:13;20.75;;;12.33;;
37355;SDS011;48747;50.250;18.848;2024-02-26T08:18:16;24.12;;;12.40;;
37355;SDS011;48747;50.250;18.848;2024-02-26T08:20:19;26.50;;;13.32;;
37355;SDS011;48747;50.250;18.848;2024-02-26T08:22:22;25.37;;;12.98;;
37355;SDS011;48747;50.250;18.848;2024-02-26T08:24:25;22.65;;;12.00;;
37355;SDS011;48747;50.250;18.848;2024-02-26T08:26:28;25.95;;;13.10;;
37355;SDS011;48747;50.250;18.848;2024-02-26T08:28:31;23.98;;;11.30;;
37355;SDS011;48747;50.250;18.848;2024-02-26T08:30:34;26.02;;;12.05;;
37355;SDS011;48747;50.250;18.848;2024-02-26T08:32:37;21.05;;;12.15;;
37355;SDS011;48747;50.250;18.848;2024-02-26T08:34:40;27.10;;;12.33;;
37355;SDS011;48747;50.250;18.848;2024-02-26T08:36:43;22.15;;;11.90;;
37355;SDS011;48747;50.250;18.848;2024-02-26T08:38:46;20.02;;;11.63;;
37355;SDS011;48747;50.250;18.848;2024-02-26T08:40:49;25.23;;;11.65;;
37355;SDS011;48747;50.250;18.848;2024-02-26T08:42:52;21.37;;;11.90;;
37355;SDS011;48747;50.250;18.848;2024-02-26T08:44:55;23.70;;;11.05;;
37355;SDS011;48747;50.250;18.848;2024-02-26T08:47:00;19.17;;;10.63;;
37355;SDS011;48747;50.250;18.848;2024-02-26T08:49:03;19.05;;;10.68;;
37355;SDS011;48747;50.250;18.848;2024-02-26T08:51:07;22.85;;;10.63;;
37355;SDS011;48747;50.250;18.848;2024-02-26T08:53:11;20.35;;;10.82;;
37355;SDS011;48747;50.250;18.848;2024-02-26T08:55:14;20.00;;;10.50;;
37355;SDS011;48747;50.250;18.848;2024-02-26T08:57:17;18.87;;;10.43;;
37355;SDS011;48747;50.250;18.848;2024-02-26T08:59:20;19.32;;;9.40;;
37355;SDS011;48747;50.250;18.848;2024-02-26T09:01:24;19.85;;;9.48;;
37355;SDS011;48747;50.250;18.848;2024-02-26T09:03:28;21.80;;;10.38;;
37355;SDS011;48747;50.250;18.848;2024-02-26T09:05:31;20.40;;;8.33;;
37355;SDS011;48747;50.250;18.848;2024-02-26T09:07:34;13.90;;;7.62;;
37355;SDS011;48747;50.250;18.848;2024-02-26T09:09:37;15.90;;;7.97;;
37355;SDS011;48747;50.250;18.848;2024-02-26T09:11:40;12.10;;;7.25;;
37355;SDS011;48747;50.250;18.848;2024-02-26T09:13:43;14.68;;;6.87;;
37355;SDS011;48747;50.250;18.848;2024-02-26T09:15:46;14.13;;;7.22;;
37355;SDS011;48747;50.250;18.848;2024-02-26T09:17:49;10.68;;;6.30;;
37355;SDS011;48747;50.250;18.848;2024-02-26T09:19:53;13.32;;;7.00;;
37355;SDS011;48747;50.250;18.848;2024-02-26T09:21:56;19.00;;;7.20;;
37355;SDS011;48747;50.250;18.848;2024-02-26T09:23:59;13.45;;;6.58;;
37355;SDS011;48747;50.250;18.848;2024-02-26T09:26:02;17.23;;;6.83;;
37355;SDS011;48747;50.250;18.848;2024-02-26T09:28:10;15.05;;;6.58;;
37355;SDS011;48747;50.250;18.848;2024-02-26T09:30:13;12.63;;;6.28;;
37355;SDS011;48747;50.250;18.848;2024-02-26T09:32:16;10.20;;;5.40;;
37355;SDS011;48747;50.250;18.848;2024-02-26T09:34:19;8.93;;;5.55;;
37355;SDS011;48747;50.250;18.848;2024-02-26T09:36:22;12.45;;;6.22;;
37355;SDS011;48747;50.250;18.848;2024-02-26T09:38:25;11.78;;;5.55;;
37355;SDS011;48747;50.250;18.848;2024-02-26T09:40:29;8.70;;;5.20;;
37355;SDS011;48747;50.250;18.848;2024-02-26T09:42:34;9.60;;;4.87;;
37355;SDS011;48747;50.250;18.848;2024-02-26T09:44:37;12.58;;;5.42;;
37355;SDS011;48747;50.250;18.848;2024-02-26T09:46:45;9.05;;;4.28;;
37355;SDS011;48747;50.250;18.848;2024-02-26T09:48:50;11.73;;;4.55;;
37355;SDS011;48747;50.250;18.848;2024-02-26T09:50:54;9.00;;;3.77;;
37355;SDS011;48747;50.250;18.848;2024-02-26T09:52:57;11.43;;;4.55;;
37355;SDS011;48747;50.250;18.848;2024-02-26T09:55:03;11.43;;;5.08;;
37355;SDS011;48747;50.250;18.848;2024-02-26T09:57:06;7.37;;;4.33;;
37355;SDS011;48747;50.250;18.848;2024-02-26T09:59:15;7.78;;;4.00;;
37355;SDS011;48747;50.250;18.848;2024-02-26T10:01:19;7.30;;;4.12;;
37355;SDS011;48747;50.250;18.848;2024-02-26T10:03:22;7.92;;;4.72;;
37355;SDS011;48747;50.250;18.848;2024-02-26T10:05:34;8.43;;;4.92;;
37355;SDS011;48747;50.250;18.848;2024-02-26T10:07:39;9.65;;;4.50;;
37355;SDS011;48747;50.250;18.848;2024-02-26T10:09:44;7.37;;;3.98;;
37355;SDS011;48747;50.250;18.848;2024-02-26T10:11:47;10.25;;;4.03;;
37355;SDS011;48747;50.250;18.848;2024-02-26T10:13:51;8.20;;;3.60;;
37355;SDS011;48747;50.250;18.848;2024-02-26T10:15:54;8.58;;;4.00;;
37355;SDS011;48747;50.250;18.848;2024-02-26T10:17:58;6.97;;;3.62;;
37355;SDS011;48747;50.250;18.848;2024-02-26T10:20:16;7.62;;;3.47;;
37355;SDS011;48747;50.250;18.848;2024-02-26T10:22:22;7.05;;;3.30;;
37355;SDS011;48747;50.250;18.848;2024-02-26T10:24:25;10.95;;;3.92;;
37355;SDS011;48747;50.250;18.848;2024-02-26T10:26:32;7.40;;;3.90;;
37355;SDS011;48747;50.250;18.848;2024-02-26T10:28:35;8.10;;;4.20;;
37355;SDS011;48747;50.250;18.848;2024-02-26T10:30:39;10.63;;;4.35;;
37355;SDS011;48747;50.250;18.848;2024-02-26T10:32:43;7.00;;;3.60;;
37355;SDS011;48747;50.250;18.848;2024-02-26T10:34:48;8.90;;;4.08;;
37355;SDS011;48747;50.250;18.848;2024-02-26T10:36:53;7.33;;;4.17;;
37355;SDS011;48747;50.250;18.848;2024-02-26T10:38:56;8.78;;;4.37;;
37355;SDS011;48747;50.250;18.848;2024-02-26T10:40:59;9.00;;;4.20;;
37355;SDS011;48747;50.250;18.848;2024-02-26T10:43:04;8.08;;;4.00;;
37355;SDS011;48747;50.250;18.848;2024-02-26T10:45:07;5.62;;;3.47;;
37355;SDS011;48747;50.250;18.848;2024-02-26T10:47:11;7.90;;;3.70;;
37355;SDS011;48747;50.250;18.848;2024-02-26T10:49:15;7.10;;;3.40;;
37355;SDS011;48747;50.250;18.848;2024-02-26T10:51:27;6.80;;;3.27;;
37355;SDS011;48747;50.250;18.848;2024-02-26T10:53:31;7.62;;;3.80;;
37355;SDS011;48747;50.250;18.848;2024-02-26T10:55:36;7.28;;;3.58;;
37355;SDS011;48747;50.250;18.848;2024-02-26T10:57:41;5.75;;;3.15;;
37355;SDS011;48747;50.250;18.848;2024-02-26T10:59:45;7.45;;;3.17;;
37355;SDS011;48747;50.250;18.848;2024-02-26T11:01:50;7.45;;;3.50;;
37355;SDS011;48747;50.250;18.848;2024-02-26T11:03:53;6.37;;;3.92;;
37355;SDS011;48747;50.250;18.848;2024-02-26T11:05:57;6.45;;;3.37;;
37355;SDS011;48747;50.250;18.848;2024-02-26T11:08:01;7.60;;;3.70;;
37355;SDS011;48747;50.250;18.848;2024-02-26T11:10:06;7.72;;;4.10;;
37355;SDS011;48747;50.250;18.848;2024-02-26T11:12:11;6.62;;;3.30;;
37355;SDS011;48747;50.250;18.848;2024-02-26T11:14:15;8.50;;;3.70;;
37355;SDS011;48747;50.250;18.848;2024-02-26T11:16:18;4.95;;;3.15;;
37355;SDS011;48747;50.250;18.848;2024-02-26T11:18:23;7.80;;;3.70;;
37355;SDS011;48747;50.250;18.848;2024-02-26T11:20:29;6.20;;;3.30;;
37355;SDS011;48747;50.250;18.848;2024-02-26T11:22:34;5.37;;;3.00;;
37355;SDS011;48747;50.250;18.848;2024-02-26T11:24:37;7.62;;;2.98;;
37355;SDS011;48747;50.250;18.848;2024-02-26T11:26:51;5.00;;;3.00;;
37355;SDS011;48747;50.250;18.848;2024-02-26T11:28:49;7.47;;;2.95;;
37355;SDS011;48747;50.250;18.848;2024-02-26T11:30:54;9.85;;;2.58;;
37355;SDS011;48747;50.250;18.848;2024-02-26T11:33:00;7.70;;;2.62;;
37355;SDS011;48747;50.250;18.848;2024-02-26T11:35:05;5.30;;;2.37;;
37355;SDS011;48747;50.250;18.848;2024-02-26T11:37:15;5.05;;;2.55;;
37355;SDS011;48747;50.250;18.848;2024-02-26T11:39:14;4.65;;;2.90;;
37355;SDS011;48747;50.250;18.848;2024-02-26T11:41:18;10.18;;;2.83;;
37355;SDS011;48747;50.250;18.848;2024-02-26T11:45:56;5.92;;;2.77;;
37355;SDS011;48747;50.250;18.848;2024-02-26T11:48:00;6.08;;;3.50;;
37355;SDS011;48747;50.250;18.848;2024-02-26T11:50:32;7.20;;;2.90;;
37355;SDS011;48747;50.250;18.848;2024-02-26T11:52:22;6.00;;;2.45;;
37355;SDS011;48747;50.250;18.848;2024-02-26T11:56:49;3.40;;;2.30;;
37355;SDS011;48747;50.250;18.848;2024-02-26T11:58:53;4.85;;;2.10;;
37355;SDS011;48747;50.250;18.848;2024-02-26T12:00:58;3.90;;;2.15;;
37355;SDS011;48747;50.250;18.848;2024-02-26T12:03:01;4.15;;;2.58;;